createdAt,value
2019-03-22T00:00:11.507Z,5.70
2019-03-22T00:05:14.879Z,5.60
2019-03-22T00:10:18.267Z,5.50
2019-03-22T00:15:21.661Z,5.50
2019-03-22T00:20:25.115Z,5.40
2019-03-22T00:25:28.596Z,5.40
2019-03-22T00:30:31.978Z,5.30
2019-03-22T00:35:35.359Z,5.20
2019-03-22T00:40:38.753Z,5.10
2019-03-22T00:45:42.135Z,5.10
2019-03-22T00:50:45.511Z,5.00
2019-03-22T00:55:48.908Z,5.00
2019-03-22T01:00:52.561Z,4.90
2019-03-22T01:05:56.043Z,4.90
2019-03-22T01:10:59.431Z,4.80
2019-03-22T01:16:02.819Z,4.80
2019-03-22T01:21:06.199Z,4.80
2019-03-22T01:26:09.598Z,4.70
2019-03-22T01:31:12.995Z,4.70
2019-03-22T01:36:16.375Z,4.60
2019-03-22T01:41:19.762Z,4.60
2019-03-22T01:46:23.152Z,4.50
2019-03-22T01:51:26.530Z,4.50
2019-03-22T01:56:30.025Z,4.40
2019-03-22T02:01:33.474Z,4.40
2019-03-22T02:06:36.858Z,4.30
2019-03-22T02:11:40.251Z,4.30
2019-03-22T02:16:43.640Z,4.20
2019-03-22T02:21:47.022Z,4.20
2019-03-22T02:26:50.409Z,4.10
2019-03-22T02:31:53.800Z,4.10
2019-03-22T02:36:57.176Z,4.00
2019-03-22T02:42:00.561Z,4.00
2019-03-22T02:47:03.959Z,3.90
2019-03-22T02:52:07.324Z,3.90
2019-03-22T02:57:10.703Z,3.90
2019-03-22T03:02:14.100Z,3.80
2019-03-22T03:07:17.501Z,3.80
2019-03-22T03:12:20.896Z,3.70
2019-03-22T03:17:24.287Z,3.70
2019-03-22T03:22:27.668Z,3.60
2019-03-22T03:27:31.065Z,3.60
2019-03-22T03:32:34.471Z,3.60
2019-03-22T03:37:38.209Z,3.50
2019-03-22T03:42:41.599Z,3.50
2019-03-22T03:47:44.995Z,3.50
2019-03-22T03:52:48.388Z,3.40
2019-03-22T03:57:51.764Z,3.40
2019-03-22T04:02:55.144Z,3.40
2019-03-22T04:07:58.556Z,3.30
2019-03-22T04:13:01.929Z,3.30
2019-03-22T04:18:05.320Z,3.30
2019-03-22T04:23:08.707Z,3.30
2019-03-22T04:28:12.083Z,3.20
2019-03-22T04:33:15.502Z,3.20
2019-03-22T04:38:18.896Z,3.20
2019-03-22T04:43:22.345Z,3.10
2019-03-22T04:48:28.849Z,3.10
2019-03-22T04:53:38.172Z,3.10
2019-03-22T04:58:43.777Z,3.10
2019-03-22T05:03:47.299Z,3.10
2019-03-22T05:08:51.835Z,3.00
2019-03-22T05:13:58.056Z,3.00
2019-03-22T05:19:03.011Z,3.00
2019-03-22T05:24:07.351Z,3.00
2019-03-22T05:29:12.417Z,2.90
2019-03-22T05:34:15.811Z,2.90
2019-03-22T05:39:19.198Z,2.90
2019-03-22T05:44:22.604Z,2.90
2019-03-22T05:49:25.995Z,2.90
2019-03-22T05:54:29.377Z,3.00
2019-03-22T05:59:41.967Z,3.00
2019-03-22T06:04:37.878Z,3.00
2019-03-22T06:09:41.275Z,3.10
2019-03-22T06:14:44.665Z,3.10
2019-03-22T06:19:48.052Z,3.20
2019-03-22T06:24:51.438Z,3.30
2019-03-22T06:29:54.845Z,3.30
2019-03-22T06:34:58.319Z,3.40
2019-03-22T06:40:01.749Z,3.50
2019-03-22T06:45:06.508Z,3.70
2019-03-22T06:50:10.029Z,3.80
2019-03-22T06:55:13.424Z,4.00
2019-03-22T07:00:16.816Z,4.20
2019-03-22T07:05:20.196Z,4.50
2019-03-22T07:10:23.574Z,4.70
2019-03-22T07:15:26.947Z,5.10
2019-03-22T07:20:30.328Z,5.50
2019-03-22T07:25:33.714Z,6.00
2019-03-22T07:30:37.096Z,6.50
2019-03-22T07:35:40.586Z,7.00
2019-03-22T07:40:43.951Z,7.60
2019-03-22T07:45:47.340Z,8.10
2019-03-22T07:50:50.781Z,8.70
2019-03-22T07:55:54.148Z,9.20
2019-03-22T08:00:57.618Z,9.80
2019-03-22T08:06:00.999Z,10.30
2019-03-22T08:11:04.472Z,10.80
2019-03-22T08:16:07.918Z,11.30
2019-03-22T08:21:11.359Z,11.80
2019-03-22T08:26:14.790Z,12.30
2019-03-22T08:31:18.187Z,12.60
2019-03-22T08:36:21.563Z,13.00
2019-03-22T08:41:24.965Z,13.40
2019-03-22T08:46:28.592Z,13.70
2019-03-22T08:51:32.026Z,14.00
2019-03-22T08:56:36.239Z,14.40
2019-03-22T09:01:39.795Z,14.60
2019-03-22T09:06:43.372Z,14.80
2019-03-22T09:11:46.886Z,15.00
2019-03-22T09:16:50.267Z,15.30
2019-03-22T09:21:53.671Z,15.50
2019-03-22T09:26:57.088Z,15.80
2019-03-22T09:32:00.516Z,16.10
2019-03-22T09:37:03.960Z,16.40
2019-03-22T09:42:07.370Z,16.60
2019-03-22T09:47:10.778Z,16.70
2019-03-22T09:52:14.198Z,16.80
2019-03-22T09:57:17.611Z,17.00
2019-03-22T10:02:21.035Z,17.20
2019-03-22T10:07:24.448Z,17.40
2019-03-22T10:12:27.834Z,17.60
2019-03-22T10:17:31.219Z,17.90
2019-03-22T10:22:34.592Z,18.20
2019-03-22T10:27:38.069Z,18.30
2019-03-22T10:32:41.490Z,18.50
2019-03-22T10:37:44.903Z,18.60
2019-03-22T10:47:54.698Z,18.90
2019-03-22T10:52:58.110Z,19.40
2019-03-22T10:58:01.506Z,19.70
2019-03-22T11:03:04.900Z,19.90
2019-03-22T11:08:08.463Z,20.00
2019-03-22T11:13:11.856Z,20.00
2019-03-22T11:18:15.239Z,20.20
2019-03-22T11:23:18.643Z,20.30
2019-03-22T11:28:22.039Z,20.30
2019-03-22T11:33:25.435Z,20.50
2019-03-22T11:38:28.827Z,20.50
2019-03-22T11:43:32.216Z,20.80
2019-03-22T11:48:35.603Z,21.00
2019-03-22T11:53:38.984Z,21.20
2019-03-22T11:58:42.379Z,21.30
2019-03-22T12:03:45.764Z,21.30
2019-03-22T12:08:49.424Z,21.30
2019-03-22T12:13:52.807Z,21.40
2019-03-22T12:18:56.200Z,21.40
2019-03-22T12:23:59.585Z,21.40
2019-03-22T12:29:02.971Z,21.60
2019-03-22T12:34:06.526Z,21.80
2019-03-22T12:39:09.914Z,21.90
2019-03-22T12:44:13.323Z,21.90
2019-03-22T12:49:16.717Z,22.10
2019-03-22T12:54:20.117Z,22.00
2019-03-22T12:59:23.499Z,22.10
2019-03-22T13:04:26.891Z,22.20
2019-03-22T13:09:30.288Z,22.20
2019-03-22T13:14:33.675Z,22.30
2019-03-22T13:19:37.068Z,22.30
2019-03-22T13:24:40.471Z,22.20
2019-03-22T13:29:43.872Z,22.30
2019-03-22T13:34:47.247Z,22.40
2019-03-22T13:39:50.639Z,22.50
2019-03-22T13:44:54.037Z,22.60
2019-03-22T13:49:57.415Z,22.60
2019-03-22T13:55:00.804Z,22.60
2019-03-22T14:00:09.344Z,22.60
2019-03-22T14:05:12.972Z,22.80
2019-03-22T14:10:27.562Z,22.90
2019-03-22T14:15:30.944Z,23.00
2019-03-22T14:20:34.335Z,23.10
2019-03-22T14:25:37.724Z,23.00
2019-03-22T14:30:41.115Z,23.10
2019-03-22T14:35:44.571Z,23.10
2019-03-22T14:40:47.959Z,23.20
2019-03-22T14:45:51.357Z,23.20
2019-03-22T14:50:54.750Z,23.10
2019-03-22T14:55:58.140Z,23.10
2019-03-22T15:01:01.544Z,23.10
2019-03-22T15:06:04.924Z,23.10
2019-03-22T15:11:08.323Z,22.90
2019-03-22T15:16:13.351Z,22.90
2019-03-22T15:21:24.435Z,22.80
2019-03-22T15:26:35.744Z,22.70
2019-03-22T15:31:40.767Z,22.60
2019-03-22T15:36:54.211Z,22.50
2019-03-22T15:41:57.604Z,22.40
2019-03-22T15:47:00.983Z,22.40
2019-03-22T15:52:04.516Z,22.20
2019-03-22T15:57:07.979Z,22.10
2019-03-22T16:02:11.507Z,22.00
2019-03-22T16:07:14.998Z,21.90
2019-03-22T16:12:18.360Z,21.70
2019-03-22T16:17:21.748Z,21.60
2019-03-22T16:22:25.132Z,21.50
2019-03-22T16:27:28.530Z,21.20
2019-03-22T16:32:31.919Z,21.00
2019-03-22T16:37:35.307Z,20.90
2019-03-22T16:42:38.694Z,20.70
2019-03-22T16:47:42.092Z,20.50
2019-03-22T16:52:45.483Z,20.50
2019-03-22T16:57:48.887Z,20.30
2019-03-22T17:02:52.270Z,20.10
2019-03-22T17:07:55.646Z,19.90
2019-03-22T17:12:59.044Z,19.60
2019-03-22T17:18:02.463Z,19.40
2019-03-22T17:23:05.861Z,19.20
2019-03-22T17:28:09.243Z,18.90
2019-03-22T17:33:12.639Z,18.60
2019-03-22T17:38:16.100Z,18.40
2019-03-22T17:43:19.487Z,18.20
2019-03-22T17:48:22.878Z,17.90
2019-03-22T17:53:26.279Z,17.70
2019-03-22T17:58:29.663Z,17.40
2019-03-22T18:03:33.041Z,17.20
2019-03-22T18:08:37.327Z,17.00
2019-03-22T18:13:40.798Z,16.70
2019-03-22T18:18:44.193Z,16.50
2019-03-22T18:23:47.571Z,16.30
2019-03-22T18:28:50.955Z,16.10
2019-03-22T18:33:54.336Z,15.90
2019-03-22T18:38:57.727Z,15.60
2019-03-22T18:44:01.122Z,15.40
2019-03-22T18:49:04.495Z,15.30
2019-03-22T18:54:07.952Z,15.10
2019-03-22T18:59:11.354Z,14.90
2019-03-22T19:04:14.739Z,14.70
2019-03-22T19:09:18.129Z,14.50
2019-03-22T19:14:21.513Z,14.30
2019-03-22T19:19:24.915Z,14.10
2019-03-22T19:24:28.302Z,14.00
2019-03-22T19:29:31.693Z,13.80
2019-03-22T19:34:35.075Z,13.60
2019-03-22T19:39:38.478Z,13.40
2019-03-22T19:44:41.855Z,13.30
2019-03-22T19:49:45.273Z,13.10
2019-03-22T19:54:48.667Z,13.00
2019-03-22T19:59:52.068Z,12.80
2019-03-22T20:05:04.371Z,12.70
2019-03-22T20:10:00.641Z,12.50
2019-03-22T20:15:05.099Z,12.40
2019-03-22T20:20:09.423Z,12.20
2019-03-22T20:25:12.945Z,12.10
2019-03-22T20:30:17.580Z,12.00
2019-03-22T20:35:20.956Z,11.80
2019-03-22T20:40:24.360Z,11.70
2019-03-22T20:45:27.736Z,11.60
2019-03-22T20:50:35.639Z,11.50
2019-03-22T20:55:36.240Z,11.30
2019-03-22T21:00:39.610Z,11.20
2019-03-22T21:05:43.000Z,11.10
2019-03-22T21:10:46.487Z,11.00
2019-03-22T21:15:49.872Z,10.90
2019-03-22T21:20:53.243Z,10.80
2019-03-22T21:25:56.638Z,10.60
2019-03-22T21:31:00.021Z,10.50
2019-03-22T21:36:03.415Z,10.40
2019-03-22T21:41:06.801Z,10.30
2019-03-22T21:46:10.192Z,10.20
2019-03-22T21:51:13.589Z,10.10
2019-03-22T21:56:16.967Z,10.00
2019-03-22T22:01:20.347Z,9.90
2019-03-22T22:06:23.738Z,9.80
2019-03-22T22:11:27.111Z,9.70
2019-03-22T22:16:30.527Z,9.60
2019-03-22T22:21:33.960Z,9.50
2019-03-22T22:26:37.339Z,9.40
2019-03-22T22:31:40.799Z,9.30
2019-03-22T22:36:44.183Z,9.20
2019-03-22T22:41:47.574Z,9.10
2019-03-22T22:46:50.969Z,9.00
2019-03-22T22:51:54.355Z,8.90
2019-03-22T22:56:57.764Z,8.80
2019-03-22T23:02:01.143Z,8.70
2019-03-22T23:07:04.662Z,8.60
2019-03-22T23:12:08.041Z,8.50
2019-03-22T23:17:11.424Z,8.40
2019-03-22T23:22:14.806Z,8.40
2019-03-22T23:27:18.188Z,8.30
2019-03-22T23:32:21.567Z,8.20
2019-03-22T23:37:24.964Z,8.10
2019-03-22T23:42:28.347Z,8.00
2019-03-22T23:47:31.764Z,8.00
2019-03-22T23:52:35.127Z,7.90
2019-03-22T23:57:38.507Z,7.80
